Gainestown, AL (36540)

10:10 AM CDT on September 21, 2014 (GMT -0500)
Jackson, AL | Change Station
CLOSE
Current Station
Personal Weather Station
Location: Jackson, AL
Elevation: 53 ft
Nearby Weather Stations

Elev 53 ft 31.49 °N, 87.90 °W | Updated 2 seconds ago

Clear
Clear
78.6 °F
Feels Like 81 °F
N
0.0
Wind Variable Wind from ENE
Gusts 0.0 mph

Today
High -- | Low -- °F
--% Chance of Precip.
Yesterday
High -- | Low -- °F
Precip. -- in
6:38 AM 6:48 PM
Waning Crescent, 6% visible
Pressure 30.06 in
Visibility 10.0 miles
Clouds Clear
Heat Index 81 °F
Dew Point 71 °F
Humidity 77%
Rainfall 0.00 in
Snow Depth Not available.
UV 1 out of 12
Pollen 9.30 out of 12
Air Quality Not available.
Flu Activity Not available.
METAR KGZH 211253Z AUTO 34003KT 10SM CLR 21/18 A3006 RMK AO2 SLP177 T02060178

More Conditions Fewer Conditions

Pressure 30.06 in
Visibility 10.0 miles
Clouds Clear
Heat Index 81 °F
Dew Point 71 °F
Humidity 77%
Rainfall 0.00 in
Snow Depth Not available.
UV 1 out of 12
Pollen 9.30 out of 12
Air Quality Not available.
Flu Activity Not available.
METAR KGZH 211253Z AUTO 34003KT 10SM CLR 21/18 A3006 RMK AO2 SLP177 T02060178

More Conditions Fewer Conditions

10-Day Weather Forecast

Almanac

Astronomy

Sep. 21, 2014 Rise Set
Actual Time 6:38 AM CDT 6:48 PM CDT
Civil Twilight 6:14 AM CDT 7:12 PM CDT
Nautical Twilight 5:45 AM CDT 7:41 PM CDT
Astronomical Twilight 5:17 AM CDT 8:09 PM CDT
Moon 4:19 AM CDT 5:18 PM CDT
Length of Visible Light 12h 58m
Length of Day
12h 10m
Tomorrow will be 1m 55s shorter.
Waning Crescent, 6% of the Moon is Illuminated
Today
Waning Crescent
Sep 24
New
Oct 1
First Quarter
Oct 8
Full
Oct 15
Last Quarter

Today's Extremes

State Highs State Lows

Community

WunderPhotos

Upload Photos

1,755,166 photos uploaded!

Nearby

Snow Depth

Station Depth Elevation
No new snow has been reported.

Earthquake Activity

City Distance Mag. Time & Date
No recent earthquake activity has been reported nearby.
Minimum magnitude displayed is 2.5.

Coastal Water Temperatures

Place Temperature
No Stations Reporting

Nearby Weather Stations